Back to Main Menu

New England District
Project Data

Nashua River @ East Pepperell, Ma

Graphical Hydro Data

Drainage Area 316 sq. mi.
Warning Stage / Flow 6.5 ft / 2990 cfs
Channel Capacity 8 ft / 4080 cfs
Date Time Stage
(ft)
Flow
(cfs)
23 Apr 13:30
23 Apr 13:15
23 Apr 13:00
23 Apr 12:45
23 Apr 12:30 3.13 968
23 Apr 12:15 3.13 968
23 Apr 12:00 3.12 963
23 Apr 11:45 3.12 963
23 Apr 11:30 3.11 957
23 Apr 11:15 3.10 952
23 Apr 11:00 3.09 946
23 Apr 10:45 3.10 952
23 Apr 10:30 3.09 946
23 Apr 10:15 3.08 941
23 Apr 10:00 3.08 941
23 Apr 09:45 3.06 930
23 Apr 09:30 3.07 935
23 Apr 09:15 3.07 935
23 Apr 09:00 3.06 930
23 Apr 08:45 2.84 814
23 Apr 08:30 3.62 1,259
23 Apr 08:15 3.62 1,259
23 Apr 08:00 3.62 1,259
23 Apr 07:45 3.62 1,259
23 Apr 07:30 3.63 1,265
23 Apr 07:15 3.63 1,265
23 Apr 07:00 3.63 1,265
23 Apr 06:45 3.62 1,259
23 Apr 06:30 3.62 1,259
23 Apr 06:15 3.62 1,259
23 Apr 06:00 3.63 1,265
23 Apr 05:45 3.63 1,265
23 Apr 05:30 3.63 1,265
23 Apr 05:15 3.64 1,271
23 Apr 05:00 3.65 1,277
23 Apr 04:45 3.65 1,277
23 Apr 04:30 3.64 1,271
23 Apr 04:15 3.66 1,284
23 Apr 04:00 3.65 1,277
23 Apr 03:45 3.65 1,277
23 Apr 03:30 3.64 1,271
23 Apr 03:15 3.65 1,277
23 Apr 03:00 3.65 1,277
23 Apr 02:45 3.65 1,277
23 Apr 02:30 3.66 1,284
23 Apr 02:15 3.65 1,277
23 Apr 02:00 3.66 1,284
23 Apr 01:45 3.67 1,290
23 Apr 01:30 3.66 1,284
23 Apr 01:15 3.66 1,284
23 Apr 01:00 3.66 1,284
23 Apr 00:45 3.68 1,295
23 Apr 00:30 3.68 1,295
23 Apr 00:15 3.67 1,290
23 Apr 00:00 3.67 1,290
22 Apr 23:45 3.68 1,295
22 Apr 23:30 3.68 1,295
22 Apr 23:15 3.68 1,295
22 Apr 23:00 3.68 1,295
22 Apr 22:45 3.69 1,301
22 Apr 22:30 3.69 1,301
22 Apr 22:15 3.69 1,301
22 Apr 22:00 3.69 1,301
22 Apr 21:45 3.68 1,295
22 Apr 21:30 3.68 1,295
22 Apr 21:15 3.70 1,307
22 Apr 21:00 3.68 1,295
22 Apr 20:45 3.70 1,307
22 Apr 20:30 3.70 1,307
22 Apr 20:15 3.69 1,301
22 Apr 20:00 3.69 1,301
22 Apr 19:45 3.69 1,301
22 Apr 19:30 3.71 1,313
22 Apr 19:15 3.71 1,313
22 Apr 19:00 3.70 1,307
22 Apr 18:45 3.69 1,301
22 Apr 18:30 3.70 1,307
22 Apr 18:15 3.72 1,319
22 Apr 18:00 3.70 1,307
22 Apr 17:45 3.70 1,307
22 Apr 17:30 3.71 1,313
22 Apr 17:15 3.70 1,307
22 Apr 17:00 3.69 1,301
22 Apr 16:45 3.72 1,319
22 Apr 16:30 3.70 1,307
22 Apr 16:15 3.72 1,319
22 Apr 16:00 3.73 1,325
22 Apr 15:45 3.72 1,319
22 Apr 15:30 3.72 1,319
22 Apr 15:15 3.71 1,313
22 Apr 15:00 3.71 1,313
22 Apr 14:45 3.73 1,325
22 Apr 14:30
22 Apr 14:15
22 Apr 14:00
22 Apr 13:45
22 Apr 13:30

Please note: all data presented on this website are for informational purposes only and should be considered preliminary.